KUVA/UVA METAR and TAF weather

Enter ICAO airport designator
Station Type Date Time Source
KUVA METAR 2020/04/09 11:55 UTC NOAA

KUVA 091155Z AUTO 06006KT 5SM BR CLR 21/21 A2989 RMK AO2 T02120212 10222 20206


Station Type Date Time Source
KUVA Decoded METAR 2020/04/09 11:55 UTC NOAA

Uvalde, Garner Field Airport, TX, United States (KUVA) 29-12-40N 099-44-36W
Apr 09, 2020 - 07:55 AM EDT / 2020.04.09 1155 UTC
Wind: from the ENE (060 degrees) at 7 MPH (6 KT):0
Visibility: 5 mile(s):0
Sky conditions: clear
Weather: mist
Temperature: 70.2 F (21.2 C)
Dew Point: 70.2 F (21.2 C)
Relative Humidity: 100%
Pressure (altimeter): 29.89 in. Hg (1012 hPa)
ob: KUVA 091155Z AUTO 06006KT 5SM BR CLR 21/21 A2989 RMK AO2 T02120212 10222 20206
cycle: 12

Station Type Date Time Source
KUVA TAF UTC NOAA

Error!

Example: see airport list